Delray Beach, FL

11:20 AM EDT on September 01, 2015 (GMT -0400)
Brads Bedding Plants Inc. | | Change Station
CLOSE
Current Station
Personal Weather Station
Location: Delray Beach, FL
Elevation: 19 ft
Nearby Weather Stations

Elev 19 ft 26.47 °N, 80.18 °W | Updated 6 seconds ago

Mostly Cloudy
Mostly Cloudy
88.3 °F
Feels Like 103 °F
N
4.0
Wind Variable Wind from North
Gusts 10.0 mph

Today
High -- | Low -- °F
--% Chance of Precip.
Yesterday
High -- | Low -- °F
Precip. -- in
7:00 AM 7:40 PM
Waning Gibbous, 88% visible
Pressure 30.11 in
Visibility 10.0 miles
Clouds Scattered Clouds 2500 ft
Heat Index 103 °F
Dew Point 79 °F
Humidity 74%
Rainfall in
Snow Depth Not available.
UV 2.8 out of 12
Pollen 4.80 out of 12
Air Quality Not available.
Flu Activity Not available.
METAR KPMP 011453Z 12008KT 10SM SCT025 32/24 A3010 RMK AO2 SLP194 60000 T03170239 53009
Pressure 30.11 in
Visibility 10.0 miles
Clouds Scattered Clouds 2500 ft
Heat Index 103 °F
Dew Point 79 °F
Humidity 74%
Rainfall in
Snow Depth Not available.
UV 2.8 out of 12
Pollen 4.80 out of 12
Air Quality Not available.
Flu Activity Not available.
METAR KPMP 011453Z 12008KT 10SM SCT025 32/24 A3010 RMK AO2 SLP194 60000 T03170239 53009

10-Day Weather Forecast

×

Almanac

Astronomy

Sep. 01, 2015 Rise Set
Actual Time
Civil Twilight
Nautical Twilight
Astronomical Twilight
Moon
Length of Visible Light
Length of Day
Tomorrow will be .
, % of the Moon is Illuminated

Today's Extremes

State Highs State Lows

Community

WunderPhotos

Upload Photos

1,851,523 photos uploaded!

WunderBlogs® & News

Nearby

Air Quality

  Air Quality AQ Index Pollutant
Not available.

Snow Depth

Station Depth Elevation

Earthquake Activity

City Distance Mag. Time & Date
Minimum magnitude displayed is 2.5.

Coastal Water Temperatures

Place Temperature

Stations

Nearby Weather Stations

Station Location Temp. Windchill Dew Point Humidity Wind Precip. Elev Updated Type